Time;durP1;ratioP1;P1;durP2;ratioP2;P2;SDS_P1;SDS_P2;PMS_P1;PMS_P2;Temp;Humidity;BMP_temperature;BMP_pressure;BME280_temperature;BME280_humidity;BME280_pressure;Samples;Min_cycle;Max_cycle;Signal;HPM_P1;HPM_P2
2022/02/06 07:58:08;;;;;;;1.77;0.70;;;6.80;99.90;;;;;;5029413;27;21132;-76
2022/02/06 08:00:36;;;;;;;1.77;0.70;;;6.80;99.90;;;;;;5018613;28;20567;-74
2022/02/06 08:03:04;;;;;;;1.30;0.63;;;6.90;99.90;;;;;;5018149;28;20574;-74
2022/02/06 08:05:34;;;;;;;1.20;0.77;;;7.10;99.90;;;;;;5015852;28;20510;-74
2022/02/06 08:08:02;;;;;;;1.17;0.53;;;7.20;99.90;;;;;;5021460;28;20498;-74
2022/02/06 08:10:29;;;;;;;1.13;0.90;;;7.50;99.90;;;;;;5020426;28;20460;-73
2022/02/06 08:13:07;;;;;;;0.53;0.53;;;7.70;99.90;;;;;;5018391;28;20565;-73
2022/02/06 08:15:40;;;;;;;2.70;0.83;;;7.80;99.90;;;;;;5020061;28;20963;-73
2022/02/06 08:18:08;;;;;;;1.23;0.60;;;7.80;99.90;;;;;;5023210;28;20579;-73
2022/02/06 08:20:38;;;;;;;2.23;0.80;;;7.90;99.90;;;;;;5021726;28;20526;-73
2022/02/06 08:23:06;;;;;;;1.13;0.53;;;7.90;99.90;;;;;;5021852;28;20575;-73
2022/02/06 08:25:34;;;;;;;1.60;0.70;;;8.00;99.90;;;;;;5020795;28;20493;-73
2022/02/06 08:28:03;;;;;;;2.30;0.70;;;8.10;99.90;;;;;;5019635;28;20495;-73
2022/02/06 08:30:32;;;;;;;1.30;0.60;;;8.20;99.90;;;;;;5021537;28;20503;-73
2022/02/06 08:33:01;;;;;;;1.70;0.60;;;8.20;99.90;;;;;;5021541;28;20521;-74
2022/02/06 08:35:29;;;;;;;2.10;0.70;;;8.20;99.90;;;;;;5021446;28;20487;-75
2022/02/06 08:37:57;;;;;;;0.77;0.53;;;8.10;99.90;;;;;;5018707;28;20507;-74
2022/02/06 08:40:25;;;;;;;0.70;0.53;;;8.30;99.90;;;;;;5020075;28;20470;-74
2022/02/06 08:42:53;;;;;;;1.50;1.23;;;8.20;99.90;;;;;;5014257;28;20526;-75
2022/02/06 08:45:22;;;;;;;2.90;2.40;;;8.20;99.90;;;;;;5019105;28;20578;-74
2022/02/06 08:47:51;;;;;;;44.07;30.93;;;8.20;99.90;;;;;;5019630;28;20865;-74
2022/02/06 08:50:22;;;;;;;161.67;55.17;;;8.30;99.90;;;;;;5020180;28;20553;-74
2022/02/06 08:52:50;;;;;;;188.90;61.37;;;8.20;99.90;;;;;;5021348;28;20459;-74
2022/02/06 08:55:19;;;;;;;223.70;65.30;;;8.20;99.90;;;;;;5019591;28;20505;-74
2022/02/06 08:57:49;;;;;;;245.57;67.47;;;8.20;99.90;;;;;;5020714;28;20463;-75
2022/02/06 09:00:18;;;;;;;240.80;62.87;;;8.30;99.90;;;;;;5020200;28;20464;-75
2022/02/06 09:02:47;;;;;;;244.27;71.53;;;8.30;99.90;;;;;;5017849;28;20515;-75
2022/02/06 09:05:16;;;;;;;243.30;64.80;;;8.30;99.90;;;;;;5019751;28;20479;-74
2022/02/06 09:07:46;;;;;;;247.27;67.33;;;8.30;99.90;;;;;;5015167;28;20480;-75
2022/02/06 09:10:16;;;;;;;248.63;107.25;;;8.40;99.90;;;;;;5005513;28;20534;-73
2022/02/06 09:12:49;;;;;;;242.13;119.25;;;8.50;99.90;;;;;;5002410;28;20428;-74
2022/02/06 09:15:19;;;;;;;246.50;111.45;;;8.60;99.90;;;;;;5000259;28;20511;-75
2022/02/06 09:17:48;;;;;;;259.60;146.50;;;8.90;99.90;;;;;;5004323;28;20424;-74
2022/02/06 09:20:17;;;;;;;;;;;8.80;99.90;;;;;;4998490;28;20442;-74
2022/02/06 09:22:46;;;;;;;;;;;8.90;99.90;;;;;;4998809;28;25112;-74
2022/02/06 09:25:14;;;;;;;;;;;8.90;99.90;;;;;;5000214;28;25071;-76
2022/02/06 09:27:43;;;;;;;;;;;9.00;99.90;;;;;;5002055;28;19933;-77
2022/02/06 09:30:15;;;;;;;55.30;48.10;;;9.00;99.90;;;;;;5001875;28;20532;-76
2022/02/06 09:35:10;;;;;;;48.80;31.00;;;9.00;99.90;;;;;;5003728;28;20474;-76
2022/02/06 09:37:38;;;;;;;;;;;9.00;99.90;;;;;;5001713;28;20450;-73
2022/02/06 09:40:10;;;;;;;39.97;29.17;;;9.20;99.90;;;;;;5001734;28;20424;-76
2022/02/06 09:42:39;;;;;;;41.73;30.43;;;9.00;99.90;;;;;;5000083;28;20471;-75
2022/02/06 09:45:07;;;;;;;;;;;9.00;99.90;;;;;;4999696;28;20439;-74
2022/02/06 09:47:36;;;;;;;22.67;18.13;;;9.00;99.90;;;;;;5001062;28;20464;-76
2022/02/06 09:50:04;;;;;;;;;;;8.90;99.90;;;;;;4999032;28;20527;-75
2022/02/06 09:52:33;;;;;;;38.15;28.30;;;8.90;99.90;;;;;;5003431;28;20440;-75
2022/02/06 09:55:09;;;;;;;30.23;21.97;;;8.90;99.90;;;;;;5004659;28;20444;-74
2022/02/06 09:57:52;;;;;;;17.60;15.30;;;9.00;99.90;;;;;;5005425;28;20526;-78
2022/02/06 10:00:21;;;;;;;20.60;16.50;;;9.20;99.90;;;;;;5004150;28;20502;-77
2022/02/06 10:02:52;;;;;;;28.45;22.10;;;9.00;99.90;;;;;;5001025;28;20438;-76
2022/02/06 10:05:21;;;;;;;20.90;16.70;;;9.00;99.90;;;;;;5001183;28;20472;-76
2022/02/06 10:07:57;;;;;;;18.43;14.20;;;9.10;99.90;;;;;;5001378;28;20869;-76
2022/02/06 10:10:26;;;;;;;31.30;24.10;;;9.10;99.90;;;;;;5001235;28;20432;-76
2022/02/06 10:13:02;;;;;;;25.60;20.20;;;9.10;99.90;;;;;;4999730;28;20474;-76
2022/02/06 10:15:31;;;;;;;;;;;9.10;99.90;;;;;;5000489;28;20511;-77
2022/02/06 10:18:00;;;;;;;;;;;9.10;99.90;;;;;;4999130;28;20441;-76
2022/02/06 10:20:32;;;;;;;;;;;9.00;99.90;;;;;;4995590;28;20981;-76
2022/02/06 10:23:04;;;;;;;;;;;9.10;99.90;;;;;;4997463;28;20437;-75
2022/02/06 10:25:40;;;;;;;;;;;9.10;99.90;;;;;;4996265;28;20309;-76
2022/02/06 10:28:22;;;;;;;;;;;9.10;99.90;;;;;;4997451;28;25093;-77
2022/02/06 10:30:51;;;;;;;;;;;9.10;99.90;;;;;;4993888;28;20472;-76
2022/02/06 10:33:21;;;;;;;;;;;9.10;99.90;;;;;;4994029;28;25128;-76
2022/02/06 10:35:50;;;;;;;;;;;9.10;99.90;;;;;;4999639;28;19933;-75
2022/02/06 10:38:20;;;;;;;;;;;9.10;99.90;;;;;;4997091;28;20025;-74
2022/02/06 10:41:02;;;;;;;;;;;9.00;99.90;;;;;;4997946;28;19964;-75
2022/02/06 10:43:32;;;;;;;;;;;9.00;99.90;;;;;;4999336;28;24083;-75
2022/02/06 10:46:06;;;;;;;;;;;9.00;99.90;;;;;;4992832;28;20027;-74
2022/02/06 10:48:34;;;;;;;;;;;9.00;99.90;;;;;;5011484;28;25070;-74
2022/02/06 10:51:05;;;;;;;;;;;9.00;99.90;;;;;;5003258;28;19925;-75
2022/02/06 10:53:33;;;;;;;;;;;9.00;99.90;;;;;;5004810;28;20017;-75
2022/02/06 10:56:02;;;;;;;;;;;9.00;99.90;;;;;;5002294;28;24084;-74
2022/02/06 10:58:32;;;;;;;;;;;9.00;99.90;;;;;;5001947;28;19929;-76
2022/02/06 11:01:06;;;;;;;;;;;9.00;99.90;;;;;;5001099;28;25079;-75
2022/02/06 11:03:36;;;;;;;;;;;8.90;99.90;;;;;;5001686;28;19945;-75
2022/02/06 11:06:23;;;;;;;;;;;8.90;99.90;;;;;;4997752;28;25063;-75
2022/02/06 11:08:51;;;;;;;;;;;8.90;99.90;;;;;;5001198;28;19997;-83
2022/02/06 11:11:19;;;;;;;;;;;8.90;99.90;;;;;;5013415;28;25081;-76
2022/02/06 11:13:48;;;;;;;;;;;8.90;99.90;;;;;;4990070;28;25091;-74
2022/02/06 11:16:18;;;;;;;;;;;8.90;99.90;;;;;;4993496;28;24074;-74
2022/02/06 11:18:49;;;;;;;;;;;8.90;99.90;;;;;;4997363;28;20021;-76
2022/02/06 11:21:19;;;;;;;;;;;8.90;99.90;;;;;;4995003;28;24979;-77
2022/02/06 11:23:48;;;;;;;;;;;9.10;99.90;;;;;;5000352;28;19952;-76
2022/02/06 11:26:17;;;;;;;;;;;9.00;99.90;;;;;;4998096;28;27132;-76
2022/02/06 11:28:45;;;;;;;;;;;8.90;99.90;;;;;;5005916;28;20510;-76
2022/02/06 11:31:16;;;;;;;;;;;8.90;99.90;;;;;;4996690;28;25101;-75
2022/02/06 11:33:44;;;;;;;;;;;8.90;99.90;;;;;;4999829;28;28175;-75
2022/02/06 11:36:17;;;;;;;;;;;9.00;99.90;;;;;;4998458;28;19929;-75
2022/02/06 11:44:47;;;;;;;;;;;8.80;99.90;;;;;;4999120;28;25127;-75
2022/02/06 11:47:18;;;;;;;;;;;8.70;99.90;;;;;;4994384;28;20266;-74
2022/02/06 11:49:48;;;;;;;;;;;8.70;99.90;;;;;;5001594;28;25124;-74
2022/02/06 11:52:16;;;;;;;;;;;8.70;99.90;;;;;;4999706;28;20352;-74
2022/02/06 11:54:44;;;;;;;;;;;8.70;99.90;;;;;;5000341;28;25123;-75
2022/02/06 11:57:21;;;;;;;;;;;8.60;99.90;;;;;;4998585;28;20466;-74
2022/02/06 12:00:04;;;;;;;;;;;8.50;99.90;;;;;;4990554;28;25119;-76
2022/02/06 12:02:34;;;;;;;;;;;8.60;99.90;;;;;;4987005;28;20274;-75
2022/02/06 12:05:18;;;;;;;;;;;8.50;99.90;;;;;;5000614;28;19936;-75
2022/02/06 12:07:56;;;;;;;;;;;8.50;99.90;;;;;;4994745;28;25145;-76
2022/02/06 12:10:44;;;;;;;;;;;8.40;99.90;;;;;;5002805;28;19925;-75
2022/02/06 12:13:28;;;;;;;;;;;8.40;99.90;;;;;;5012645;28;20547;-76
2022/02/06 12:15:59;;;;;;;;;;;8.40;99.90;;;;;;4998920;28;25165;-75
2022/02/06 12:18:28;;;;;;;;;;;8.40;99.90;;;;;;4980641;28;25091;-74
2022/02/06 12:20:57;;;;;;;;;;;8.30;99.90;;;;;;4982464;28;25127;-75
2022/02/06 12:23:35;;;;;;;;;;;8.50;99.90;;;;;;4992742;28;25074;-74
2022/02/06 12:26:04;;;;;;;;;;;8.30;99.90;;;;;;4982967;28;25073;-74
2022/02/06 12:28:41;;;;;;;;;;;8.40;99.90;;;;;;4978615;28;25158;-74
2022/02/06 12:31:27;;;;;;;;;;;8.40;99.90;;;;;;4974964;28;20417;-76
2022/02/06 12:34:01;;;;;;;;;;;8.30;99.90;;;;;;4980137;28;24088;-74
2022/02/06 12:37:06;;;;;;;;;;;8.30;99.90;;;;;;4992848;28;25164;-73
2022/02/06 12:39:37;;;;;;;;;;;8.20;99.90;;;;;;4988113;28;20214;-75
2022/02/06 12:42:08;;;;;;;;;;;8.10;99.90;;;;;;4992472;28;25203;-77
2022/02/06 12:44:39;;;;;;;;;;;8.00;99.90;;;;;;4993310;28;25093;-74
2022/02/06 12:47:11;;;;;;;;;;;8.00;99.90;;;;;;4990303;28;25089;-76
2022/02/06 12:49:41;;;;;;;;;;;8.00;99.90;;;;;;5003106;28;20045;-77
2022/02/06 12:52:09;;;;;;;;;;;7.90;99.90;;;;;;4995177;28;20061;-75
2022/02/06 12:54:37;;;;;;;;;;;7.80;99.90;;;;;;4996115;28;25070;-76
2022/02/06 12:57:05;;;;;;;;;;;7.80;99.90;;;;;;4993168;28;25074;-77
2022/02/06 12:59:34;;;;;;;;;;;7.80;99.90;;;;;;5000857;28;19921;-74
2022/02/06 13:02:05;;;;;;;;;;;7.70;99.90;;;;;;4996395;28;25095;-74
2022/02/06 13:04:40;;;;;;;;;;;7.70;99.90;;;;;;4999615;28;20908;-75
2022/02/06 13:07:08;;;;;;;;;;;7.70;99.90;;;;;;4997254;28;20005;-74
2022/02/06 13:09:40;;;;;;;;;;;7.60;99.90;;;;;;5000659;28;19929;-75
2022/02/06 13:12:15;;;;;;;;;;;7.60;99.90;;;;;;5001962;28;19921;-74
2022/02/06 13:14:59;;;;;;;;;;;7.60;99.90;;;;;;4998110;28;19931;-75
2022/02/06 13:17:43;;;;;;;;;;;7.50;99.90;;;;;;4995843;28;25058;-74
2022/02/06 13:20:24;;;;;;;;;;;7.50;99.90;;;;;;5005108;28;19925;-75
2022/02/06 13:22:59;;;;;;;;;;;7.50;99.90;;;;;;4990874;28;25075;-75
2022/02/06 13:28:26;;;;;;;;;;;7.50;99.90;;;;;;4995894;28;19921;-75
2022/02/06 13:31:18;;;;;;;;;;;7.30;99.90;;;;;;4998876;28;25056;-75
2022/02/06 13:33:57;;;;;;;;;;;7.20;99.90;;;;;;4989735;28;25066;-75
2022/02/06 13:36:35;;;;;;;;;;;7.20;99.90;;;;;;4997149;28;20215;-75
2022/02/06 13:39:08;;;;;;;;;;;7.10;99.90;;;;;;4997984;28;20423;-75
2022/02/06 13:41:36;;;;;;;;;;;7.10;99.90;;;;;;5001447;28;20406;-75
2022/02/06 13:44:11;;;;;;;;;;;7.10;99.90;;;;;;5001267;28;19925;-75
2022/02/06 13:46:42;;;;;;;;;;;7.10;99.90;;;;;;4999080;28;19944;-75
2022/02/06 13:49:11;;;;;;;;;;;7.10;99.90;;;;;;5006749;28;25070;-75
2022/02/06 13:51:43;;;;;;;;;;;7.10;99.90;;;;;;5002546;28;19931;-74
2022/02/06 13:54:11;;;;;;;;;;;7.00;99.90;;;;;;5001372;28;19989;-75
2022/02/06 13:56:45;;;;;;;;;;;7.00;99.90;;;;;;4988044;28;19925;-73
2022/02/06 13:59:18;;;;;;;;;;;7.00;99.90;;;;;;4995527;28;25082;-73
2022/02/06 14:01:51;;;;;;;;;;;7.00;99.90;;;;;;4991909;28;20023;-74
2022/02/06 14:04:21;;;;;;;;;;;7.10;99.90;;;;;;5000243;28;24078;-73
2022/02/06 14:06:54;;;;;;;;;;;7.00;99.90;;;;;;4995324;28;20020;-74
2022/02/06 14:09:29;;;;;;;;;;;6.90;99.90;;;;;;4998394;28;19929;-75
2022/02/06 14:11:58;;;;;;;;;;;6.90;99.90;;;;;;4999436;28;26182;-74
2022/02/06 14:14:26;;;;;;;;;;;7.00;99.90;;;;;;4999825;28;19955;-75
2022/02/06 14:17:16;;;;;;;;;;;7.00;99.90;;;;;;4992961;28;25075;-75
2022/02/06 14:19:45;;;;;;;;;;;7.00;99.90;;;;;;4992822;28;25175;-73
2022/02/06 14:22:24;;;;;;;;;;;7.00;99.90;;;;;;4994622;28;20024;-74
2022/02/06 14:24:53;;;;;;;;;;;7.00;99.90;;;;;;4997924;28;19961;-74
2022/02/06 14:27:27;;;;;;;;;;;7.10;99.90;;;;;;4991877;28;25687;-74
2022/02/06 14:31:43;;;;;;;;;;;6.90;99.90;;;;;;5026617;27;1908694;-80
2022/02/06 14:48:31;;;;;;;;;;;20.40;99.90;;;;;;5067435;27;19990;-77
2022/02/06 14:59:58;;;;;;;1.20;0.80;;;21.80;99.90;;;;;;5050116;27;58943;-76
2022/02/06 15:02:27;;;;;;;1.33;0.70;;;21.70;99.90;;;;;;5045660;22;58086;-69
2022/02/06 15:04:55;;;;;;;2.30;0.77;;;21.90;99.90;;;;;;5022738;28;20482;-74
2022/02/06 15:07:23;;;;;;;1.47;0.80;;;21.70;99.90;;;;;;5024190;28;20514;-74
2022/02/06 15:09:53;;;;;;;2.00;0.90;;;21.60;99.90;;;;;;5023085;28;20452;-69
2022/02/06 15:12:21;;;;;;;1.13;0.80;;;22.30;99.90;;;;;;5024491;28;20986;-70
2022/02/06 15:14:49;;;;;;;1.13;0.90;;;22.10;99.90;;;;;;5007866;28;20465;-64
2022/02/06 15:17:21;;;;;;;1.43;1.00;;;22.70;99.90;;;;;;5003290;28;20999;-70
2022/02/06 15:33:29;;;;;;;1.70;0.87;;;19.00;99.90;;;;;;5093570;27;20590;-78
2022/02/06 15:35:58;;;;;;;2.67;1.07;;;13.60;99.90;;;;;;5062206;28;21111;-77
2022/02/06 15:38:31;;;;;;;2.07;1.10;;;10.80;99.90;;;;;;5053776;28;20468;-76
2022/02/06 15:41:00;;;;;;;1.87;1.40;;;8.90;99.90;;;;;;5075705;28;20470;-78
2022/02/06 15:43:29;;;;;;;2.37;1.20;;;7.70;99.90;;;;;;5066737;28;20483;-77
2022/02/06 15:45:57;;;;;;;3.17;1.37;;;7.00;99.90;;;;;;5061962;28;20597;-77
2022/02/06 15:48:27;;;;;;;4.80;1.50;;;6.70;99.90;;;;;;5065734;28;20485;-76
2022/02/06 15:50:57;;;;;;;7.30;1.60;;;6.40;99.90;;;;;;5061616;28;20568;-75
2022/02/06 15:53:25;;;;;;;3.00;1.40;;;6.30;99.90;;;;;;5064237;28;20541;-77
2022/02/06 15:55:55;;;;;;;2.13;1.43;;;6.20;99.90;;;;;;5060359;28;20493;-75
2022/02/06 15:58:23;;;;;;;7.43;2.13;;;6.10;99.90;;;;;;5041099;28;20493;-75
2022/02/06 16:00:51;;;;;;;4.00;1.60;;;6.00;99.90;;;;;;5064605;28;20457;-76
2022/02/06 16:03:20;;;;;;;3.63;1.90;;;6.00;99.90;;;;;;5066313;28;21698;-75
2022/02/06 16:05:48;;;;;;;4.20;1.80;;;5.90;99.90;;;;;;5064907;28;20497;-76
2022/02/06 16:08:18;;;;;;;1.83;1.47;;;5.90;99.90;;;;;;5062205;28;20487;-76
2022/02/06 16:10:46;;;;;;;4.50;1.67;;;5.90;99.90;;;;;;5069374;28;20572;-77
2022/02/06 16:13:14;;;;;;;6.43;2.00;;;5.90;99.90;;;;;;5063869;28;20583;-75
2022/02/06 16:15:42;;;;;;;4.37;1.73;;;5.80;99.90;;;;;;5065461;28;20489;-75
2022/02/06 16:18:10;;;;;;;4.10;1.57;;;5.80;99.90;;;;;;5066204;28;20503;-75
2022/02/06 16:20:38;;;;;;;4.57;1.70;;;5.80;99.90;;;;;;5076158;28;20468;-77
2022/02/06 16:23:06;;;;;;;4.43;1.87;;;5.90;99.90;;;;;;5074944;28;20466;-76
2022/02/06 16:25:36;;;;;;;5.40;1.60;;;5.90;99.90;;;;;;5076424;28;20578;-76
2022/02/06 16:28:04;;;;;;;5.13;1.73;;;5.90;99.90;;;;;;5051540;28;20483;-77
2022/02/06 16:30:33;;;;;;;7.03;2.10;;;5.90;99.90;;;;;;5055300;28;20480;-77
2022/02/06 16:33:01;;;;;;;5.20;1.73;;;5.90;99.90;;;;;;5051868;28;20488;-76
2022/02/06 16:35:32;;;;;;;4.13;2.13;;;5.90;99.90;;;;;;5050342;28;20573;-76
2022/02/06 16:38:20;;;;;;;4.90;2.47;;;5.90;99.90;;;;;;5079407;28;20489;-77
2022/02/06 16:40:49;;;;;;;6.60;2.10;;;5.90;99.90;;;;;;5079329;28;20460;-76
2022/02/06 16:43:18;;;;;;;6.20;1.90;;;5.90;99.90;;;;;;5077692;28;20504;-77
2022/02/06 16:45:46;;;;;;;5.17;1.90;;;5.90;99.90;;;;;;5068311;28;20505;-76
2022/02/06 16:48:15;;;;;;;7.10;2.80;;;5.90;99.90;;;;;;5064775;28;20505;-77
2022/02/06 16:50:46;;;;;;;4.83;2.40;;;5.80;99.90;;;;;;5064989;28;20505;-76
2022/02/06 16:53:15;;;;;;;9.20;2.17;;;5.80;99.90;;;;;;5055491;28;20475;-77
2022/02/06 16:55:43;;;;;;;5.00;1.93;;;5.80;99.90;;;;;;5064685;28;20503;-76
2022/02/06 16:58:12;;;;;;;7.67;2.00;;;5.80;99.90;;;;;;5060667;28;20554;-76
2022/02/06 17:00:47;;;;;;;6.93;2.47;;;5.80;99.90;;;;;;5066262;28;20486;-78
2022/02/06 17:03:15;;;;;;;3.53;1.83;;;5.90;99.90;;;;;;5067613;28;20471;-80
2022/02/06 17:05:44;;;;;;;8.70;3.30;;;5.90;99.90;;;;;;5063139;28;20638;-78
2022/02/06 17:08:16;;;;;;;5.40;1.60;;;5.90;99.90;;;;;;5063079;28;20498;-77
2022/02/06 17:10:47;;;;;;;4.33;1.90;;;5.80;99.90;;;;;;5063376;28;20466;-77
2022/02/06 17:13:18;;;;;;;4.60;1.97;;;5.80;99.90;;;;;;5054729;28;20482;-76
2022/02/06 17:15:47;;;;;;;9.50;2.23;;;5.70;99.90;;;;;;5060561;28;20482;-75
2022/02/06 17:18:15;;;;;;;11.07;2.33;;;5.70;99.90;;;;;;5066506;28;20500;-79
2022/02/06 17:20:46;;;;;;;4.00;2.13;;;5.70;99.90;;;;;;5066334;28;20470;-76
2022/02/06 17:23:16;;;;;;;4.03;1.90;;;5.70;99.90;;;;;;5059836;28;20562;-77
2022/02/06 17:25:44;;;;;;;5.63;2.30;;;5.70;99.90;;;;;;5066089;28;20503;-76
2022/02/06 17:28:12;;;;;;;4.60;2.13;;;5.70;99.90;;;;;;5038547;28;20556;-77
2022/02/06 17:30:41;;;;;;;5.80;2.27;;;5.70;99.90;;;;;;5032855;28;20467;-73
2022/02/06 17:33:10;;;;;;;7.13;1.80;;;5.80;99.90;;;;;;5032481;28;20506;-73
2022/02/06 17:35:38;;;;;;;3.83;2.37;;;5.70;99.90;;;;;;5031945;28;20524;-76
2022/02/06 17:38:06;;;;;;;6.67;2.47;;;5.80;99.90;;;;;;5035953;28;20486;-76
2022/02/06 17:40:34;;;;;;;4.13;2.10;;;5.80;99.90;;;;;;5040421;28;20470;-77
2022/02/06 17:43:02;;;;;;;4.97;1.83;;;5.70;99.90;;;;;;5032159;28;20475;-76
2022/02/06 17:45:30;;;;;;;5.37;1.83;;;5.50;99.90;;;;;;5026424;28;20501;-76
2022/02/06 17:48:00;;;;;;;5.80;1.67;;;5.50;99.90;;;;;;5032753;28;20485;-76
2022/02/06 17:50:32;;;;;;;5.50;1.67;;;5.50;99.90;;;;;;5035729;28;20474;-76
2022/02/06 17:53:00;;;;;;;2.17;1.10;;;5.40;99.90;;;;;;5031112;28;20490;-74
2022/02/06 17:55:29;;;;;;;2.40;1.10;;;5.40;99.90;;;;;;5029297;28;20518;-73
2022/02/06 17:57:57;;;;;;;5.07;1.47;;;5.30;99.90;;;;;;5028889;28;20497;-73
2022/02/06 18:00:25;;;;;;;2.20;1.37;;;5.30;99.90;;;;;;5027527;28;20502;-73
2022/02/06 18:02:53;;;;;;;2.10;1.30;;;5.30;99.90;;;;;;5029034;28;20463;-73
2022/02/06 18:05:24;;;;;;;1.57;1.07;;;5.30;99.90;;;;;;5025628;28;20540;-74
2022/02/06 18:07:52;;;;;;;2.40;1.20;;;5.30;99.90;;;;;;5021455;28;20492;-73
2022/02/06 18:10:20;;;;;;;6.13;1.70;;;5.30;99.90;;;;;;5002044;23;20582;-76
2022/02/06 18:12:48;;;;;;;2.97;1.30;;;5.30;99.90;;;;;;4984662;28;20491;-76
2022/02/06 18:15:19;;;;;;;3.30;1.20;;;5.30;99.90;;;;;;4983914;28;20460;-77
2022/02/06 18:17:47;;;;;;;4.30;1.63;;;5.30;99.90;;;;;;4995070;28;20551;-77
2022/02/06 18:20:16;;;;;;;3.27;1.70;;;5.30;99.90;;;;;;4987830;28;20547;-77
2022/02/06 18:22:50;;;;;;;4.93;1.70;;;5.30;99.90;;;;;;4976667;28;20479;-77
2022/02/06 18:25:19;;;;;;;3.50;2.07;;;5.30;99.90;;;;;;4968176;28;20577;-77
2022/02/06 18:27:47;;;;;;;5.33;2.23;;;5.40;99.90;;;;;;4975234;28;20492;-78
2022/02/06 18:30:15;;;;;;;5.10;2.43;;;5.40;99.90;;;;;;4976052;28;20497;-76
2022/02/06 18:32:43;;;;;;;8.07;2.43;;;5.40;99.90;;;;;;4990300;28;21149;-78
2022/02/06 18:35:13;;;;;;;6.10;2.63;;;5.30;99.90;;;;;;4977691;28;20477;-80
2022/02/06 18:37:41;;;;;;;7.30;3.73;;;5.40;99.90;;;;;;4976457;28;20489;-78
2022/02/06 18:40:12;;;;;;;7.10;2.20;;;5.40;99.90;;;;;;4976172;28;20518;-77
2022/02/06 18:42:40;;;;;;;4.50;2.33;;;5.40;99.90;;;;;;4976359;28;20474;-78
2022/02/06 18:45:13;;;;;;;6.67;2.70;;;5.40;99.90;;;;;;4972724;28;20593;-77
2022/02/06 18:47:41;;;;;;;5.53;2.50;;;5.40;99.90;;;;;;4974593;28;20542;-75
2022/02/06 18:50:11;;;;;;;8.33;2.50;;;5.40;99.90;;;;;;4975736;28;20496;-77
2022/02/06 18:52:39;;;;;;;3.03;2.17;;;5.40;99.90;;;;;;4976545;28;20541;-77
2022/02/06 18:55:11;;;;;;;3.33;2.13;;;5.40;99.90;;;;;;4979562;28;20542;-79
2022/02/06 18:57:43;;;;;;;5.53;2.30;;;5.40;99.90;;;;;;4985460;28;20495;-77
2022/02/06 19:00:14;;;;;;;5.17;2.20;;;5.50;99.90;;;;;;4984549;28;20519;-77
2022/02/06 19:02:43;;;;;;;7.20;2.20;;;5.50;99.90;;;;;;4984534;28;20477;-79
2022/02/06 19:05:11;;;;;;;6.13;2.10;;;5.50;99.90;;;;;;4980440;28;20469;-77
2022/02/06 19:07:40;;;;;;;6.00;1.63;;;5.40;99.90;;;;;;4979093;28;20507;-76
2022/02/06 19:10:09;;;;;;;6.73;2.13;;;5.50;99.90;;;;;;4975285;28;20569;-78
2022/02/06 19:12:40;;;;;;;5.43;2.00;;;5.50;99.90;;;;;;4975032;28;20482;-77
2022/02/06 19:15:11;;;;;;;5.23;1.90;;;5.50;99.90;;;;;;4976724;28;20500;-79
2022/02/06 19:17:39;;;;;;;4.17;1.73;;;5.40;99.90;;;;;;4975954;28;20528;-79
2022/02/06 19:20:09;;;;;;;7.70;2.37;;;5.40;99.90;;;;;;4976539;28;20685;-78
2022/02/06 19:22:38;;;;;;;3.93;2.20;;;5.50;99.90;;;;;;4975838;28;20532;-76
2022/02/06 19:25:07;;;;;;;4.97;2.40;;;5.50;99.90;;;;;;4974923;28;20534;-77
2022/02/06 19:27:35;;;;;;;6.20;2.40;;;5.50;99.90;;;;;;4974737;28;20511;-78
2022/02/06 19:30:05;;;;;;;3.80;2.17;;;5.50;99.90;;;;;;4991585;28;20489;-78
2022/02/06 19:32:34;;;;;;;7.83;1.77;;;5.50;99.90;;;;;;4979089;28;20478;-78
2022/02/06 19:35:13;;;;;;;4.07;1.90;;;5.50;99.90;;;;;;4977269;28;20542;-78
2022/02/06 19:37:41;;;;;;;4.67;1.90;;;5.50;99.90;;;;;;4978539;28;20581;-77
2022/02/06 19:40:10;;;;;;;3.80;1.90;;;5.50;99.90;;;;;;4975481;28;20493;-77
2022/02/06 19:42:39;;;;;;;5.50;2.10;;;5.40;99.90;;;;;;4977496;28;20478;-79
2022/02/06 19:45:09;;;;;;;7.70;2.30;;;5.40;99.90;;;;;;4983880;28;20553;-77
2022/02/06 19:47:38;;;;;;;4.03;1.50;;;5.40;99.90;;;;;;4974676;28;20495;-79
2022/02/06 19:50:07;;;;;;;3.87;1.67;;;5.40;99.90;;;;;;4979472;28;20530;-77
2022/02/06 19:52:35;;;;;;;2.60;1.57;;;5.40;99.90;;;;;;4979341;28;20479;-79
2022/02/06 19:55:04;;;;;;;5.50;2.03;;;5.40;99.90;;;;;;4976230;28;20490;-78
2022/02/06 19:57:32;;;;;;;2.10;1.30;;;5.40;99.90;;;;;;4976041;28;20484;-76
2022/02/06 20:00:00;;;;;;;4.37;1.97;;;5.40;99.90;;;;;;4971336;28;20495;-74
2022/02/06 20:02:29;;;;;;;4.50;1.80;;;5.30;99.90;;;;;;4976448;28;20507;-75
2022/02/06 20:05:00;;;;;;;6.30;1.93;;;5.30;99.90;;;;;;4991069;28;20457;-74
2022/02/06 20:07:30;;;;;;;6.10;1.70;;;5.30;99.90;;;;;;4972688;28;20588;-73
2022/02/06 20:10:02;;;;;;;6.37;1.70;;;5.30;99.90;;;;;;4977929;28;20506;-78
2022/02/06 20:12:34;;;;;;;3.63;1.40;;;5.30;99.90;;;;;;4976178;28;20532;-77
2022/02/06 20:15:03;;;;;;;2.70;1.10;;;5.10;99.90;;;;;;4979135;28;20487;-76
2022/02/06 20:17:33;;;;;;;1.80;0.90;;;5.00;99.90;;;;;;4975599;28;20550;-75
2022/02/06 20:20:04;;;;;;;2.60;1.23;;;4.90;99.90;;;;;;4975029;28;20514;-75
2022/02/06 20:22:32;;;;;;;1.63;1.20;;;4.90;99.90;;;;;;4980163;28;20464;-75
2022/02/06 20:25:01;;;;;;;0.97;0.60;;;4.70;99.90;;;;;;4982301;28;20475;-75
2022/02/06 20:27:29;;;;;;;3.70;1.10;;;4.60;99.90;;;;;;4980148;28;20522;-74
2022/02/06 20:29:58;;;;;;;2.10;0.90;;;4.50;99.90;;;;;;4981802;28;20504;-74
2022/02/06 20:32:27;;;;;;;2.00;1.10;;;4.40;99.90;;;;;;4978518;28;20870;-77
2022/02/06 20:34:58;;;;;;;2.90;1.30;;;4.50;99.90;;;;;;4973615;28;21861;-76
2022/02/06 20:37:28;;;;;;;2.93;1.50;;;4.40;99.90;;;;;;4975405;28;21188;-76
2022/02/06 20:40:06;;;;;;;1.93;0.90;;;4.40;99.90;;;;;;4978927;28;21075;-76
2022/02/06 20:42:39;;;;;;;2.30;0.83;;;4.40;99.90;;;;;;4981678;28;20861;-77
2022/02/06 20:45:12;;;;;;;4.67;1.20;;;4.20;99.90;;;;;;4981415;28;20860;-77
2022/02/06 20:47:44;;;;;;;0.97;0.80;;;4.10;99.90;;;;;;4981462;28;20886;-77
2022/02/06 20:50:17;;;;;;;1.07;0.70;;;4.00;99.90;;;;;;4981128;28;20954;-76
2022/02/06 20:52:53;;;;;;;1.20;0.83;;;3.90;99.90;;;;;;4982515;28;21133;-74
2022/02/06 20:55:24;;;;;;;0.83;0.60;;;3.80;99.90;;;;;;4984574;28;20503;-76
2022/02/06 20:57:57;;;;;;;1.50;0.90;;;3.80;99.90;;;;;;4978505;28;20922;-74
2022/02/06 21:00:30;;;;;;;2.10;1.03;;;3.80;99.90;;;;;;4978464;28;20947;-76
2022/02/06 21:03:03;;;;;;;1.67;1.00;;;3.80;99.90;;;;;;4980125;28;20989;-75
2022/02/06 21:05:32;;;;;;;3.40;0.83;;;3.80;99.90;;;;;;4981658;28;20836;-76
2022/02/06 21:08:09;;;;;;;2.07;1.00;;;3.80;99.90;;;;;;4979236;28;21003;-75
2022/02/06 21:10:58;;;;;;;3.77;1.53;;;3.90;99.90;;;;;;4982070;28;20476;-75
2022/02/06 21:13:28;;;;;;;4.30;1.27;;;3.90;99.90;;;;;;4985272;28;20972;-77
2022/02/06 21:15:59;;;;;;;4.43;1.43;;;3.90;99.90;;;;;;4982368;28;21041;-75
2022/02/06 21:18:29;;;;;;;3.70;1.83;;;3.90;99.90;;;;;;4981928;28;21015;-77
2022/02/06 21:21:02;;;;;;;4.87;1.57;;;3.80;99.90;;;;;;4973756;28;20973;-78
2022/02/06 21:23:31;;;;;;;2.50;1.20;;;3.70;99.90;;;;;;4973220;28;20995;-76
2022/02/06 21:26:02;;;;;;;2.33;1.50;;;3.80;99.90;;;;;;4977429;28;20477;-76
2022/02/06 21:28:35;;;;;;;4.40;1.30;;;3.90;99.90;;;;;;4975930;28;20493;-76
2022/02/06 21:31:07;;;;;;;6.30;1.70;;;3.90;99.90;;;;;;4978147;28;20858;-75
2022/02/06 21:33:36;;;;;;;5.57;1.37;;;3.90;99.90;;;;;;4977169;28;22780;-75
2022/02/06 21:36:06;;;;;;;4.80;1.40;;;3.90;99.90;;;;;;4975062;28;20572;-76
2022/02/06 21:38:38;;;;;;;4.10;1.27;;;3.90;99.90;;;;;;4979498;28;20494;-75
2022/02/06 21:41:06;;;;;;;4.47;1.60;;;3.80;99.90;;;;;;4978833;28;20979;-76
2022/02/06 21:43:36;;;;;;;4.03;1.40;;;3.80;99.90;;;;;;4981601;28;20476;-77
2022/02/06 21:46:06;;;;;;;2.67;1.13;;;3.80;99.90;;;;;;4978336;28;20462;-77
2022/02/06 21:48:34;;;;;;;5.07;1.17;;;3.80;99.90;;;;;;4978778;28;20488;-76
2022/02/06 21:51:04;;;;;;;4.07;1.30;;;3.80;99.90;;;;;;4978268;28;20474;-77
2022/02/06 21:53:35;;;;;;;2.80;1.10;;;3.80;99.90;;;;;;4978541;28;20544;-77
2022/02/06 21:56:05;;;;;;;1.87;0.90;;;3.80;99.90;;;;;;4994822;28;20490;-76
2022/02/06 21:58:36;;;;;;;2.17;1.10;;;3.80;99.90;;;;;;4978935;28;20491;-75
2022/02/06 22:01:05;;;;;;;3.20;1.70;;;3.80;99.90;;;;;;4985808;28;20501;-76
2022/02/06 22:03:34;;;;;;;2.93;1.27;;;3.70;99.90;;;;;;4977908;28;20484;-77
2022/02/06 22:06:07;;;;;;;2.57;0.90;;;3.70;99.90;;;;;;4977539;28;20605;-75
2022/02/06 22:08:46;;;;;;;3.30;1.60;;;3.70;99.90;;;;;;4978976;28;20497;-76
2022/02/06 22:25:23;;;;;;;2.40;1.00;;;3.70;99.90;;;;;;4958212;28;20568;-76
2022/02/06 22:30:40;;;;;;;3.77;1.30;;;3.70;99.90;;;;;;4977536;28;20930;-75
2022/02/06 22:33:11;;;;;;;2.60;1.30;;;3.80;99.90;;;;;;4979095;28;20494;-76
2022/02/06 22:35:41;;;;;;;6.60;1.40;;;3.80;99.90;;;;;;4977815;28;20888;-76
2022/02/06 22:38:12;;;;;;;3.73;1.27;;;3.70;99.90;;;;;;4977885;28;20488;-75
2022/02/06 22:40:42;;;;;;;4.40;1.30;;;3.70;99.90;;;;;;4977988;28;20480;-75
2022/02/06 22:43:14;;;;;;;4.77;1.47;;;3.80;99.90;;;;;;4978227;28;20474;-76
2022/02/06 22:45:45;;;;;;;3.43;1.20;;;3.70;99.90;;;;;;4976966;28;20463;-76